Mesquite, Nevada Weather observations

Data are for observation ending at time listed.
 Day   Time    Ave.   Ave.  Ave.  Vector   Max.   Stn.    Total    Solar   Ave.  
  of    of     Air    Rel.  Wind   Wind    Wind   Baro.  Precip.   Rad.    Soil  
Year   Day     Temp.  Hum.  Speed  Dir.    Gust   Pres.                    Temp. 
2014   (PST)    F      %     mph   deg.    mph     mb.     in.     W/m2     F   
------------------------------------------------------------------------------
 108    4:50   61.6    20    4.0    56      5.8   945.6    0.00       0    76.3
 108    5:00   62.4    20    3.6   298      5.3   945.7    0.00       3    76.2
 108    5:10   62.5    22    3.7   251      5.3   945.8    0.00       4    76.1
 108    5:20   62.5    21    2.1   267      4.6   945.8    0.00      12    75.9
 108    5:30   63.3    20    1.8   306      4.1   945.8    0.00      26    75.8
 108    5:40   63.3    20    2.6   202      4.7   946.0    0.00      38    75.7
 108    5:50   63.1    20    2.8   179      4.4   946.1    0.00      49    75.5
 108    6:00   63.6    20    2.5   248      4.2   946.3    0.00      61    75.5
 108    6:10   64.5    19    1.4   222      2.9   946.4    0.00      90    75.3
 108    6:20   65.3    18    2.3   117      4.7   946.4    0.00      87    75.2
 108    6:30   65.5    18    2.4   140      4.2   946.5    0.00     102    75.1
 108    6:40   65.8    18    2.6   116      3.9   946.6    0.00     138    75.1
 108    6:50   67.0    17    1.5    93      2.6   946.6    0.00     131    75.0
 108    7:00   67.6    16    1.1    72      2.0   946.7    0.00     156    75.0
 108    7:10   69.0    15    0.5   104      2.0   946.6    0.00     201    75.0
 108    7:20   70.4    15    1.5   150      3.1   946.7    0.00     281    74.9
 108    7:30   71.7    15    1.4   175      2.8   946.7    0.00     268    74.9
 108    7:40   71.3    15    1.8   222      3.4   946.8    0.00     319    74.9
 108    7:50   72.5    15    2.0   211      3.6   946.9    0.00     340    75.0
 108    8:00   73.1    15    2.2   243      3.9   946.8    0.00     345    75.0
 108    8:10   73.4    14    1.9   258      2.9   946.8    0.00     368    75.1
 108    8:20   75.5    14    1.7   224      3.1   946.9    0.00     512    75.3
 108    8:30   78.0    13    1.9   245      3.3   946.9    0.00     633    75.5
 108    8:40   79.3    13    2.3   242      4.0   947.1    0.00     556    75.8
 108    8:50   80.7    13    1.6   234      2.9   947.1    0.00     482    76.1
 108    9:00   81.8    12    1.4   240      2.9   947.1    0.00     406    76.4
 108    9:10   82.4    12    1.5   240      3.3   947.2    0.00     448    76.8
 108    9:20   83.1    12    1.9   231      3.7   947.2    0.00     440    77.2
 108    9:30   81.8    13    4.2   279      8.5   947.2    0.00     431    77.6
 108    9:40   83.3    13    2.5   219      5.5   947.2    0.00     547    78.0
 108    9:50   83.0    13    3.4   220      9.0   947.2    0.00     425    78.4
 108   10:00   82.2    13    4.3   244      9.1   947.2    0.00     411    78.8
 108   10:10   82.3    13    3.6   234      7.2   947.2    0.00     348    79.2
 108   10:20   81.5    13    4.4   280      8.5   947.2    0.00     330    79.5
 108   10:30   81.2    13    4.0   271      8.6   947.1    0.00     319    79.8
 108   10:40   81.1    13    5.1   275      8.6   947.0    0.00     318    80.0
 108   10:50   81.8    13    3.9   262      7.5   947.0    0.00     347    80.2
 108   11:00   81.9    13    4.0   259      8.6   946.9    0.00     312    80.3
 108   11:10   81.3    13    5.8   271      8.7   946.7    0.00     287    80.5
 108   11:20   81.2    13    5.6   274      9.2   946.7    0.00     311    80.7
 108   11:30   81.8    13    4.8   271      8.4   946.6    0.00     337    80.8
 108   11:40   82.8    13    4.0   237     10.4   946.6    0.00     423    81.0
 108   11:50   82.9    13    6.3   238     10.8   946.5    0.00     467    81.2
 108   12:00   82.3    13    7.6   237     15.8   946.5    0.00     334    81.4
 108   12:10   81.4    13    7.8   238     14.5   946.5    0.00     292    81.6
 108   12:20   81.4    13    7.7   236     16.6   946.6    0.00     279    81.7
 108   12:30   81.6    13    8.5   240     14.9   946.5    0.00     302    81.8
 108   12:40   81.7    14    9.0   242     16.4   946.4    0.00     439    81.9
 108   12:50   82.3    14    9.4   237     19.5   946.4    0.00     530    82.1
 108   13:00   81.9    14   10.2   242     18.3   946.3    0.00     449    82.3
 108   13:10   82.4    13   11.2   254     18.3   946.1    0.00     531    82.6
 108   13:20   83.0    13   11.7   255     21.5   945.9    0.00     607    82.9
 108   13:30   84.1    13   10.3   241     20.1   945.8    0.00     626    83.3
 108   13:40   84.9    13    7.8   226     15.3   945.9    0.00     695    83.8
 108   13:50   85.6    13    6.6   221     15.1   945.9    0.00     702    84.3
 108   14:00   85.2    13    6.7   222     15.0   945.7    0.00     543    85.0
 108   14:10   83.9    13    8.0   222     17.8   945.6    0.00     287    85.5
 108   14:20   82.5    14    9.3   240     17.3   945.4    0.00     305    85.9
 108   14:30   82.9    13    8.0   226     16.1   945.3    0.00     361    86.1
 108   14:40   82.7    14    8.1   241     16.1   945.1    0.00     395    86.2
 108   14:50   84.6    13    5.3   218     14.5   945.1    0.00     592    86.4
 108   15:00   85.6    12    5.5   217     15.3   945.0    0.00     419    86.7
 108   15:10   85.9    11    6.3   225     13.3   944.9    0.00     506    87.0
 108   15:20   84.5    12    7.3   223     19.1   944.9    0.00     342    87.3
 108   15:30   84.4    12    6.7   227     13.9   944.9    0.00     292    87.5
 108   15:40   83.4    13    6.6   217     17.4   944.9    0.00     248    87.6
 108   15:50   82.7    14    6.8   216     17.4   944.9    0.00     161    87.6
 108   16:00   81.3    14    9.6   226     18.5   945.0    0.00     154    87.5
 108   16:10   81.2    15    8.7   228     18.1   945.0    0.00     184    87.4
 108   16:20   81.6    15    7.4   218     17.2   945.0    0.00     209    87.1
 108   16:30   81.5    15    5.8   209     15.6   945.0    0.00     120    87.0
 108   16:40   80.7    16    8.2   222     15.8   945.1    0.00     123    86.8
 108   16:50   80.3    17    7.5   230     17.0   945.1    0.00     115    86.6
 108   17:00   80.0    17    7.1   230     14.4   945.2    0.00      80    86.4
 108   17:10   79.7    18    7.5   233     15.9   945.2    0.00      81    86.1
 108   17:20   79.5    17    6.4   221     14.7   945.2    0.00      59    85.9
 108   17:30   78.9    17    7.3   219     15.9   945.1    0.00      38    85.6
 108   17:40   78.7    16    7.3   219     18.5   945.1    0.00      30    85.4
 108   17:50   78.4    16    7.2   226     16.8   945.3    0.00      24    85.1
 108   18:00   78.1    16    6.7   230     13.5   945.4    0.00      17    84.8
 108   18:10   77.9    16    5.1   230     11.7   945.4    0.00       9    84.5
 108   18:20   77.6    15    5.1   226     12.2   945.5    0.00       3    84.3
 108   18:30   77.1    16    5.6   214     13.5   945.6    0.00       2    84.0
 108   18:40   76.7    16    3.2   214      7.9   945.7    0.00       1    83.7
 108   18:50   76.2    17    1.9   243      5.3   945.9    0.00       0    83.4
 108   19:00   76.0    17    3.9   245     10.2   946.0    0.00       0    83.2
 108   19:10   76.0    17    4.3   233      9.0   946.1    0.00       0    82.9
 108   19:20   75.8    18    3.0   211      8.7   946.3    0.00       0    82.7
 108   19:30   75.2    18    3.5   180      7.3   946.3    0.00       0    82.5
 108   19:40   75.1    17    4.2   162      7.5   946.4    0.00       0    82.2
 108   19:50   74.9    18    3.0   183      5.9   946.6    0.00       0    82.0
 108   20:00   74.9    18    2.5   205      6.4   946.8    0.00       0    81.8
 108   20:10   75.1    18    1.1   246      3.7   946.8    0.00       0    81.6
 108   20:20   74.7    18    1.4   334      2.2   946.8    0.00       0    81.4
 108   20:30   73.9    19    1.8    44      2.7   946.8    0.00       0    81.2
 108   20:40   72.8    20    2.2    51      2.9   946.8    0.00       0    81.1
 108   20:50   73.3    19    0.6    12      1.6   946.9    0.00       0    80.9
 108   21:00   73.4    19    0.2   350      1.4   946.9    0.00       0    80.7
 108   21:10   72.8    21    1.8   226      2.6   947.0    0.00       0    80.5
 108   21:20   72.4    22    1.4   264      2.5   947.0    0.00       0    80.4
 108   21:30   71.4    20    2.3   105      3.6   947.1    0.00       0    80.2
 108   21:40   70.2    20    2.1    96      3.9   947.1    0.00       0    80.1
 108   21:50   70.0    20    0.8   117      3.0   947.2    0.00       0    79.9
 108   22:00   70.2    20    1.1   133      2.9   947.2    0.00       0    79.8
 108   22:10   69.1    22    2.8   109      4.6   947.3    0.00       0    79.6
 108   22:20   68.4    23    2.1    93      5.3   947.3    0.00       0    79.4
 108   22:30   68.2    23    2.1    64      3.5   947.4    0.00       0    79.3
 108   22:40   69.0    23    2.0   298      5.3   947.4    0.00       0    79.1
 108   22:50   69.1    24    1.0   260      3.1   947.4    0.00       0    79.0
 108   23:00   69.3    24    1.5   281      2.9   947.5    0.00       0    78.9
 108   23:10   69.0    24    1.2   188      3.1   947.6    0.00       0    78.7
 108   23:20   68.4    25    2.9   159      7.0   947.7    0.00       0    78.6
 108   23:30   67.4    24    2.2   123      5.3   947.9    0.00       0    78.5
 108   23:40   67.7    24    1.5   295      6.9   947.9    0.00       0    78.3
 108   23:50   70.4    23    3.5   242      7.6   947.9    0.00       0    78.2
 109    0:00   71.8    22    4.3   258      7.2   948.0    0.00       0    78.1
 109    0:10   71.5    24    3.3   242      6.3   948.0    0.00       0    78.0
 109    0:20   71.7    25    4.0   267      9.9   948.0    0.00       0    77.8
 109    0:30   71.7    27    5.1   255     10.5   947.9    0.00       0    77.7
 109    0:40   71.8    27    7.7   248     13.4   947.9    0.00       0    77.6
 109    0:50   71.7    28    6.7   243     13.9   947.9    0.00       0    77.5
 109    1:00   71.4    28    2.6   243      8.6   947.9    0.00       0    77.4
 109    1:10   70.8    29    2.0   252      4.5   947.9    0.00       0    77.3
 109    1:20   70.0    28    3.0   232      5.6   948.0    0.00       0    77.2
 109    1:30   68.4    30    2.4   110      4.5   948.0    0.00       0    77.1
 109    1:40   67.6    30    3.6    21      6.1   948.0    0.00       0    76.9
 109    1:50   68.4    29    3.3   325      5.5   948.1    0.00       0    76.8
 109    2:00   68.1    28    3.4    30      5.3   948.2    0.00       0    76.7
 109    2:10   68.2    29    1.7   355      3.6   948.4    0.00       0    76.6
 109    2:20   66.4    28    2.1    71      4.2   948.5    0.00       0    76.4
 109    2:30   65.9    28    1.8   351      2.9   948.7    0.00       0    76.4
 109    2:40   65.9    29    1.4   306      4.2   948.8    0.00       0    76.2
 109    2:50   65.6    30    1.1   112      2.7   948.8    0.00       0    76.1
 109    3:00   64.4    31    2.8   109      5.0   949.0    0.00       0    76.0
 109    3:10   64.6    31    1.9   103      2.9   949.1    0.00       0    75.9
 109    3:20   64.2    31    1.8    63      2.3   949.2    0.00       0    75.8
 109    3:30   63.7    32    2.1    49      3.2   949.2    0.00       0    75.7
 109    3:40   63.2    33    1.7    30      2.8   949.3    0.00       0    75.6
 109    3:50   63.5    34    2.8    63      4.0   949.3    0.00       0    75.5
 109    4:00   62.6    36    4.0    66      5.3   949.3    0.00       0    75.3
 109    4:10   62.3    38    4.2    54      5.6   949.4    0.00       0    75.2
 109    4:20   62.4    39    3.1    38      3.9   949.4    0.00       0    75.1
 109    4:30   62.6    40    2.9    47      3.5   949.5    0.00       0    75.0
 109    4:40   62.0    42    3.7    20      5.1   949.5    0.00       0    74.9

Return to Mesquite, Nevada graphs page.


Western Regional Climate Center,wrcc@dri.edu